sensor_id;sensor_type;location;lat;lon;timestamp;P1;durP1;ratioP1;P2;durP2;ratioP2
65831;SDS011;52593;42.648;23.332;2024-01-06T00:01:13;22.77;;;7.43;;
65831;SDS011;52593;42.648;23.332;2024-01-06T00:03:40;17.98;;;6.82;;
65831;SDS011;52593;42.648;23.332;2024-01-06T00:06:05;19.00;;;6.97;;
65831;SDS011;52593;42.648;23.332;2024-01-06T00:08:31;18.00;;;6.80;;
65831;SDS011;52593;42.648;23.332;2024-01-06T00:10:56;17.03;;;7.00;;
65831;SDS011;52593;42.648;23.332;2024-01-06T00:13:22;19.50;;;7.43;;
65831;SDS011;52593;42.648;23.332;2024-01-06T00:15:47;21.92;;;7.45;;
65831;SDS011;52593;42.648;23.332;2024-01-06T00:18:15;22.53;;;7.60;;
65831;SDS011;52593;42.648;23.332;2024-01-06T00:20:40;24.08;;;8.75;;
65831;SDS011;52593;42.648;23.332;2024-01-06T00:23:06;21.53;;;8.30;;
65831;SDS011;52593;42.648;23.332;2024-01-06T00:25:31;22.15;;;8.07;;
65831;SDS011;52593;42.648;23.332;2024-01-06T00:28:00;23.97;;;8.50;;
65831;SDS011;52593;42.648;23.332;2024-01-06T00:30:26;21.50;;;7.28;;
65831;SDS011;52593;42.648;23.332;2024-01-06T00:33:09;21.63;;;6.87;;
65831;SDS011;52593;42.648;23.332;2024-01-06T00:35:34;19.17;;;7.68;;
65831;SDS011;52593;42.648;23.332;2024-01-06T00:38:00;22.83;;;8.07;;
65831;SDS011;52593;42.648;23.332;2024-01-06T00:40:26;20.97;;;7.97;;
65831;SDS011;52593;42.648;23.332;2024-01-06T00:42:51;16.27;;;6.97;;
65831;SDS011;52593;42.648;23.332;2024-01-06T00:45:20;19.67;;;7.87;;
65831;SDS011;52593;42.648;23.332;2024-01-06T00:47:45;20.05;;;7.72;;
65831;SDS011;52593;42.648;23.332;2024-01-06T00:50:11;19.60;;;7.13;;
65831;SDS011;52593;42.648;23.332;2024-01-06T00:52:37;22.17;;;8.02;;
65831;SDS011;52593;42.648;23.332;2024-01-06T00:55:05;23.63;;;7.57;;
65831;SDS011;52593;42.648;23.332;2024-01-06T00:57:31;19.25;;;7.75;;
65831;SDS011;52593;42.648;23.332;2024-01-06T00:59:56;23.93;;;8.17;;
65831;SDS011;52593;42.648;23.332;2024-01-06T01:02:22;21.10;;;7.35;;
65831;SDS011;52593;42.648;23.332;2024-01-06T01:04:50;20.27;;;7.37;;
65831;SDS011;52593;42.648;23.332;2024-01-06T01:07:18;20.30;;;7.30;;
65831;SDS011;52593;42.648;23.332;2024-01-06T01:09:43;18.92;;;7.60;;
65831;SDS011;52593;42.648;23.332;2024-01-06T01:12:09;20.65;;;8.00;;
65831;SDS011;52593;42.648;23.332;2024-01-06T01:14:35;18.30;;;6.70;;
65831;SDS011;52593;42.648;23.332;2024-01-06T01:17:00;23.97;;;7.67;;
65831;SDS011;52593;42.648;23.332;2024-01-06T01:19:25;17.63;;;7.18;;
65831;SDS011;52593;42.648;23.332;2024-01-06T01:21:51;22.73;;;7.73;;
65831;SDS011;52593;42.648;23.332;2024-01-06T01:24:20;19.98;;;7.20;;
65831;SDS011;52593;42.648;23.332;2024-01-06T01:26:46;21.10;;;7.85;;
65831;SDS011;52593;42.648;23.332;2024-01-06T01:29:12;15.07;;;6.20;;
65831;SDS011;52593;42.648;23.332;2024-01-06T01:31:37;16.13;;;6.90;;
65831;SDS011;52593;42.648;23.332;2024-01-06T01:34:03;20.23;;;6.73;;
65831;SDS011;52593;42.648;23.332;2024-01-06T01:36:28;16.58;;;7.32;;
65831;SDS011;52593;42.648;23.332;2024-01-06T01:38:54;21.50;;;7.33;;
65831;SDS011;52593;42.648;23.332;2024-01-06T01:41:22;20.02;;;7.10;;
65831;SDS011;52593;42.648;23.332;2024-01-06T01:43:48;21.20;;;6.63;;
65831;SDS011;52593;42.648;23.332;2024-01-06T01:46:13;18.70;;;6.73;;
65831;SDS011;52593;42.648;23.332;2024-01-06T01:48:39;19.23;;;7.07;;
65831;SDS011;52593;42.648;23.332;2024-01-06T01:51:05;16.17;;;5.97;;
65831;SDS011;52593;42.648;23.332;2024-01-06T01:53:32;13.80;;;5.40;;
65831;SDS011;52593;42.648;23.332;2024-01-06T01:55:58;16.07;;;5.83;;
65831;SDS011;52593;42.648;23.332;2024-01-06T01:58:24;13.53;;;5.53;;
65831;SDS011;52593;42.648;23.332;2024-01-06T02:00:49;14.68;;;5.63;;
65831;SDS011;52593;42.648;23.332;2024-01-06T02:03:15;20.60;;;5.07;;
65831;SDS011;52593;42.648;23.332;2024-01-06T02:05:41;13.55;;;5.10;;
65831;SDS011;52593;42.648;23.332;2024-01-06T02:08:07;16.05;;;5.15;;
65831;SDS011;52593;42.648;23.332;2024-01-06T02:10:33;19.02;;;5.25;;
65831;SDS011;52593;42.648;23.332;2024-01-06T02:13:20;15.47;;;4.50;;
65831;SDS011;52593;42.648;23.332;2024-01-06T02:15:45;12.15;;;4.68;;
65831;SDS011;52593;42.648;23.332;2024-01-06T02:18:10;17.67;;;6.17;;
65831;SDS011;52593;42.648;23.332;2024-01-06T02:20:36;16.75;;;4.53;;
65831;SDS011;52593;42.648;23.332;2024-01-06T02:23:02;11.23;;;3.87;;
65831;SDS011;52593;42.648;23.332;2024-01-06T02:25:27;13.15;;;4.82;;
65831;SDS011;52593;42.648;23.332;2024-01-06T02:27:54;7.75;;;2.67;;
65831;SDS011;52593;42.648;23.332;2024-01-06T02:30:20;14.82;;;4.75;;
65831;SDS011;52593;42.648;23.332;2024-01-06T02:32:45;16.67;;;4.87;;
65831;SDS011;52593;42.648;23.332;2024-01-06T02:35:11;14.93;;;4.73;;
65831;SDS011;52593;42.648;23.332;2024-01-06T02:37:36;19.70;;;7.03;;
65831;SDS011;52593;42.648;23.332;2024-01-06T02:40:02;17.90;;;6.63;;
65831;SDS011;52593;42.648;23.332;2024-01-06T02:42:33;18.08;;;6.05;;
65831;SDS011;52593;42.648;23.332;2024-01-06T02:44:59;17.07;;;5.87;;
65831;SDS011;52593;42.648;23.332;2024-01-06T02:47:24;17.37;;;5.90;;
65831;SDS011;52593;42.648;23.332;2024-01-06T02:49:50;19.40;;;6.37;;
65831;SDS011;52593;42.648;23.332;2024-01-06T02:52:15;13.23;;;5.17;;
65831;SDS011;52593;42.648;23.332;2024-01-06T02:54:41;20.77;;;6.10;;
65831;SDS011;52593;42.648;23.332;2024-01-06T02:57:06;17.87;;;5.70;;
65831;SDS011;52593;42.648;23.332;2024-01-06T02:59:32;16.33;;;5.38;;
65831;SDS011;52593;42.648;23.332;2024-01-06T03:01:59;22.92;;;7.45;;
65831;SDS011;52593;42.648;23.332;2024-01-06T03:04:26;20.63;;;7.47;;
65831;SDS011;52593;42.648;23.332;2024-01-06T03:06:51;22.48;;;8.07;;
65831;SDS011;52593;42.648;23.332;2024-01-06T03:09:18;25.37;;;7.97;;
65831;SDS011;52593;42.648;23.332;2024-01-06T03:11:44;29.33;;;8.95;;
65831;SDS011;52593;42.648;23.332;2024-01-06T03:14:10;20.48;;;7.93;;
65831;SDS011;52593;42.648;23.332;2024-01-06T03:16:35;17.17;;;6.93;;
65831;SDS011;52593;42.648;23.332;2024-01-06T03:19:01;17.10;;;7.10;;
65831;SDS011;52593;42.648;23.332;2024-01-06T03:21:26;18.23;;;6.45;;
65831;SDS011;52593;42.648;23.332;2024-01-06T03:23:52;18.73;;;6.47;;
65831;SDS011;52593;42.648;23.332;2024-01-06T03:26:20;14.73;;;6.30;;
65831;SDS011;52593;42.648;23.332;2024-01-06T03:28:46;17.55;;;6.47;;
65831;SDS011;52593;42.648;23.332;2024-01-06T03:31:13;15.57;;;5.73;;
65831;SDS011;52593;42.648;23.332;2024-01-06T03:33:38;18.20;;;6.07;;
65831;SDS011;52593;42.648;23.332;2024-01-06T03:36:06;12.33;;;5.57;;
65831;SDS011;52593;42.648;23.332;2024-01-06T03:38:33;16.90;;;6.03;;
65831;SDS011;52593;42.648;23.332;2024-01-06T03:40:58;14.77;;;6.57;;
65831;SDS011;52593;42.648;23.332;2024-01-06T03:43:24;16.70;;;5.87;;
65831;SDS011;52593;42.648;23.332;2024-01-06T03:45:50;17.20;;;5.85;;
65831;SDS011;52593;42.648;23.332;2024-01-06T03:48:15;17.77;;;6.33;;
65831;SDS011;52593;42.648;23.332;2024-01-06T03:50:41;16.52;;;5.80;;
65831;SDS011;52593;42.648;23.332;2024-01-06T03:53:06;14.17;;;5.90;;
65831;SDS011;52593;42.648;23.332;2024-01-06T03:55:32;14.40;;;5.53;;
65831;SDS011;52593;42.648;23.332;2024-01-06T03:57:58;17.00;;;6.03;;
65831;SDS011;52593;42.648;23.332;2024-01-06T04:00:25;15.77;;;6.03;;
65831;SDS011;52593;42.648;23.332;2024-01-06T04:02:51;13.70;;;5.15;;
65831;SDS011;52593;42.648;23.332;2024-01-06T04:05:17;10.63;;;4.10;;
65831;SDS011;52593;42.648;23.332;2024-01-06T04:07:42;13.43;;;4.30;;
65831;SDS011;52593;42.648;23.332;2024-01-06T04:10:08;11.63;;;4.30;;
65831;SDS011;52593;42.648;23.332;2024-01-06T04:12:33;12.82;;;4.55;;
65831;SDS011;52593;42.648;23.332;2024-01-06T04:14:59;11.70;;;4.50;;
65831;SDS011;52593;42.648;23.332;2024-01-06T04:17:24;16.53;;;4.27;;
65831;SDS011;52593;42.648;23.332;2024-01-06T04:19:51;11.30;;;3.90;;
65831;SDS011;52593;42.648;23.332;2024-01-06T04:22:17;11.30;;;3.73;;
65831;SDS011;52593;42.648;23.332;2024-01-06T04:24:42;16.60;;;4.13;;
65831;SDS011;52593;42.648;23.332;2024-01-06T04:27:08;11.63;;;4.33;;
65831;SDS011;52593;42.648;23.332;2024-01-06T04:29:34;10.95;;;4.72;;
65831;SDS011;52593;42.648;23.332;2024-01-06T04:32:00;14.40;;;4.67;;
65831;SDS011;52593;42.648;23.332;2024-01-06T04:34:25;11.90;;;4.37;;
65831;SDS011;52593;42.648;23.332;2024-01-06T04:36:51;12.50;;;4.10;;
65831;SDS011;52593;42.648;23.332;2024-01-06T04:39:17;13.23;;;4.60;;
65831;SDS011;52593;42.648;23.332;2024-01-06T04:41:42;11.80;;;4.80;;
65831;SDS011;52593;42.648;23.332;2024-01-06T04:44:08;12.10;;;4.18;;
65831;SDS011;52593;42.648;23.332;2024-01-06T04:46:33;10.80;;;4.07;;
65831;SDS011;52593;42.648;23.332;2024-01-06T04:48:59;13.70;;;4.30;;
65831;SDS011;52593;42.648;23.332;2024-01-06T04:51:27;9.87;;;3.87;;
65831;SDS011;52593;42.648;23.332;2024-01-06T04:53:52;13.18;;;4.07;;
65831;SDS011;52593;42.648;23.332;2024-01-06T04:56:18;10.73;;;3.90;;
65831;SDS011;52593;42.648;23.332;2024-01-06T04:58:44;9.90;;;3.85;;
65831;SDS011;52593;42.648;23.332;2024-01-06T05:01:13;11.95;;;4.20;;
65831;SDS011;52593;42.648;23.332;2024-01-06T05:03:38;11.53;;;4.10;;
65831;SDS011;52593;42.648;23.332;2024-01-06T05:06:04;12.38;;;4.63;;
65831;SDS011;52593;42.648;23.332;2024-01-06T05:08:29;11.50;;;4.07;;
65831;SDS011;52593;42.648;23.332;2024-01-06T05:10:58;12.23;;;4.07;;
65831;SDS011;52593;42.648;23.332;2024-01-06T05:13:24;13.38;;;4.70;;
65831;SDS011;52593;42.648;23.332;2024-01-06T05:15:49;12.60;;;4.73;;
65831;SDS011;52593;42.648;23.332;2024-01-06T05:18:18;14.00;;;4.10;;
65831;SDS011;52593;42.648;23.332;2024-01-06T05:20:43;16.25;;;5.00;;
65831;SDS011;52593;42.648;23.332;2024-01-06T05:23:09;12.77;;;4.70;;
65831;SDS011;52593;42.648;23.332;2024-01-06T05:25:34;14.52;;;4.55;;
65831;SDS011;52593;42.648;23.332;2024-01-06T05:28:02;13.43;;;4.37;;
65831;SDS011;52593;42.648;23.332;2024-01-06T05:30:28;11.55;;;4.68;;
65831;SDS011;52593;42.648;23.332;2024-01-06T05:32:53;13.00;;;4.47;;
65831;SDS011;52593;42.648;23.332;2024-01-06T05:35:19;13.70;;;4.73;;
65831;SDS011;52593;42.648;23.332;2024-01-06T05:37:44;11.43;;;4.67;;
65831;SDS011;52593;42.648;23.332;2024-01-06T05:40:10;12.40;;;4.43;;
65831;SDS011;52593;42.648;23.332;2024-01-06T05:42:36;15.82;;;4.93;;
65831;SDS011;52593;42.648;23.332;2024-01-06T05:45:02;13.27;;;4.53;;
65831;SDS011;52593;42.648;23.332;2024-01-06T05:47:27;11.83;;;4.43;;
65831;SDS011;52593;42.648;23.332;2024-01-06T05:49:53;14.73;;;5.15;;
65831;SDS011;52593;42.648;23.332;2024-01-06T05:52:18;13.03;;;4.53;;
65831;SDS011;52593;42.648;23.332;2024-01-06T05:54:44;13.77;;;4.73;;
65831;SDS011;52593;42.648;23.332;2024-01-06T05:57:09;16.77;;;4.70;;
65831;SDS011;52593;42.648;23.332;2024-01-06T05:59:35;15.25;;;4.85;;
65831;SDS011;52593;42.648;23.332;2024-01-06T06:02:04;12.35;;;3.45;;
65831;SDS011;52593;42.648;23.332;2024-01-06T06:04:29;10.70;;;4.23;;
65831;SDS011;52593;42.648;23.332;2024-01-06T06:06:55;14.43;;;4.30;;
65831;SDS011;52593;42.648;23.332;2024-01-06T06:09:20;17.37;;;4.47;;
65831;SDS011;52593;42.648;23.332;2024-01-06T06:11:47;12.98;;;5.10;;
65831;SDS011;52593;42.648;23.332;2024-01-06T06:14:13;12.70;;;4.57;;
65831;SDS011;52593;42.648;23.332;2024-01-06T06:16:39;12.07;;;4.40;;
65831;SDS011;52593;42.648;23.332;2024-01-06T06:19:04;12.10;;;4.18;;
65831;SDS011;52593;42.648;23.332;2024-01-06T06:21:30;12.13;;;4.77;;
65831;SDS011;52593;42.648;23.332;2024-01-06T06:23:55;12.33;;;4.80;;
65831;SDS011;52593;42.648;23.332;2024-01-06T06:26:21;14.82;;;5.10;;
65831;SDS011;52593;42.648;23.332;2024-01-06T06:28:46;12.60;;;4.60;;
65831;SDS011;52593;42.648;23.332;2024-01-06T06:31:12;14.50;;;5.07;;
65831;SDS011;52593;42.648;23.332;2024-01-06T06:33:38;15.07;;;5.07;;
65831;SDS011;52593;42.648;23.332;2024-01-06T06:36:04;16.58;;;4.03;;
65831;SDS011;52593;42.648;23.332;2024-01-06T06:38:30;10.65;;;4.43;;
65831;SDS011;52593;42.648;23.332;2024-01-06T06:40:55;12.33;;;4.50;;
65831;SDS011;52593;42.648;23.332;2024-01-06T06:43:21;16.50;;;4.57;;
65831;SDS011;52593;42.648;23.332;2024-01-06T06:45:46;18.45;;;5.63;;
65831;SDS011;52593;42.648;23.332;2024-01-06T06:48:12;14.63;;;5.07;;
65831;SDS011;52593;42.648;23.332;2024-01-06T06:50:38;11.27;;;4.60;;
65831;SDS011;52593;42.648;23.332;2024-01-06T06:53:03;13.30;;;5.65;;
65831;SDS011;52593;42.648;23.332;2024-01-06T06:55:29;15.57;;;5.57;;
65831;SDS011;52593;42.648;23.332;2024-01-06T06:57:54;13.80;;;5.23;;
65831;SDS011;52593;42.648;23.332;2024-01-06T07:00:20;13.75;;;5.63;;
65831;SDS011;52593;42.648;23.332;2024-01-06T07:02:45;15.97;;;5.13;;
65831;SDS011;52593;42.648;23.332;2024-01-06T07:05:11;14.93;;;5.50;;
65831;SDS011;52593;42.648;23.332;2024-01-06T07:07:36;16.40;;;6.17;;
65831;SDS011;52593;42.648;23.332;2024-01-06T07:10:03;19.05;;;6.45;;
65831;SDS011;52593;42.648;23.332;2024-01-06T07:12:30;15.40;;;5.90;;
65831;SDS011;52593;42.648;23.332;2024-01-06T07:14:56;17.93;;;6.50;;
65831;SDS011;52593;42.648;23.332;2024-01-06T07:17:24;15.25;;;6.38;;
65831;SDS011;52593;42.648;23.332;2024-01-06T07:19:50;17.05;;;5.85;;
65831;SDS011;52593;42.648;23.332;2024-01-06T07:22:16;15.23;;;5.30;;
65831;SDS011;52593;42.648;23.332;2024-01-06T07:24:44;15.63;;;5.60;;
65831;SDS011;52593;42.648;23.332;2024-01-06T07:27:10;12.93;;;5.40;;
65831;SDS011;52593;42.648;23.332;2024-01-06T07:29:35;18.63;;;6.00;;
65831;SDS011;52593;42.648;23.332;2024-01-06T07:32:02;19.63;;;7.73;;
65831;SDS011;52593;42.648;23.332;2024-01-06T07:34:27;15.15;;;6.07;;
65831;SDS011;52593;42.648;23.332;2024-01-06T07:36:53;17.40;;;6.37;;
65831;SDS011;52593;42.648;23.332;2024-01-06T07:39:18;12.37;;;5.77;;
65831;SDS011;52593;42.648;23.332;2024-01-06T07:41:47;17.33;;;6.13;;
65831;SDS011;52593;42.648;23.332;2024-01-06T07:44:12;14.83;;;6.70;;
65831;SDS011;52593;42.648;23.332;2024-01-06T07:46:38;17.83;;;6.07;;
65831;SDS011;52593;42.648;23.332;2024-01-06T07:49:05;18.73;;;7.03;;
65831;SDS011;52593;42.648;23.332;2024-01-06T07:51:31;22.92;;;7.30;;
65831;SDS011;52593;42.648;23.332;2024-01-06T07:53:57;21.92;;;7.75;;
65831;SDS011;52593;42.648;23.332;2024-01-06T07:56:23;21.07;;;7.43;;
65831;SDS011;52593;42.648;23.332;2024-01-06T07:58:48;28.67;;;8.63;;
65831;SDS011;52593;42.648;23.332;2024-01-06T08:01:14;23.47;;;8.77;;
65831;SDS011;52593;42.648;23.332;2024-01-06T08:03:39;22.87;;;8.13;;
65831;SDS011;52593;42.648;23.332;2024-01-06T08:06:05;25.50;;;8.15;;
65831;SDS011;52593;42.648;23.332;2024-01-06T08:08:31;18.73;;;8.00;;
65831;SDS011;52593;42.648;23.332;2024-01-06T08:10:56;23.70;;;8.93;;
65831;SDS011;52593;42.648;23.332;2024-01-06T08:13:22;20.10;;;7.80;;
65831;SDS011;52593;42.648;23.332;2024-01-06T08:15:47;21.13;;;7.40;;
65831;SDS011;52593;42.648;23.332;2024-01-06T08:18:13;15.30;;;6.20;;
65831;SDS011;52593;42.648;23.332;2024-01-06T08:20:38;15.50;;;6.53;;
65831;SDS011;52593;42.648;23.332;2024-01-06T08:23:04;23.33;;;7.70;;
65831;SDS011;52593;42.648;23.332;2024-01-06T08:25:29;17.05;;;7.38;;
65831;SDS011;52593;42.648;23.332;2024-01-06T08:27:55;35.37;;;13.63;;
65831;SDS011;52593;42.648;23.332;2024-01-06T08:30:20;15.20;;;6.80;;
65831;SDS011;52593;42.648;23.332;2024-01-06T08:32:46;14.82;;;6.18;;
65831;SDS011;52593;42.648;23.332;2024-01-06T08:35:11;19.40;;;6.67;;
65831;SDS011;52593;42.648;23.332;2024-01-06T08:37:37;15.67;;;6.83;;
65831;SDS011;52593;42.648;23.332;2024-01-06T08:40:02;14.70;;;5.40;;
65831;SDS011;52593;42.648;23.332;2024-01-06T08:42:29;11.90;;;4.70;;
65831;SDS011;52593;42.648;23.332;2024-01-06T08:44:55;14.87;;;3.63;;
65831;SDS011;52593;42.648;23.332;2024-01-06T08:47:20;15.23;;;4.40;;
65831;SDS011;52593;42.648;23.332;2024-01-06T08:49:46;15.50;;;4.30;;
65831;SDS011;52593;42.648;23.332;2024-01-06T08:52:11;14.27;;;6.37;;
65831;SDS011;52593;42.648;23.332;2024-01-06T08:54:37;14.97;;;6.73;;
65831;SDS011;52593;42.648;23.332;2024-01-06T08:57:02;16.95;;;6.90;;
65831;SDS011;52593;42.648;23.332;2024-01-06T08:59:28;17.37;;;6.93;;
65831;SDS011;52593;42.648;23.332;2024-01-06T09:01:54;20.75;;;7.55;;
65831;SDS011;52593;42.648;23.332;2024-01-06T09:04:20;17.58;;;6.82;;
65831;SDS011;52593;42.648;23.332;2024-01-06T09:06:46;24.33;;;7.00;;
65831;SDS011;52593;42.648;23.332;2024-01-06T09:09:12;15.33;;;6.83;;
65831;SDS011;52593;42.648;23.332;2024-01-06T09:11:38;14.93;;;6.47;;
65831;SDS011;52593;42.648;23.332;2024-01-06T09:14:04;17.47;;;7.33;;
65831;SDS011;52593;42.648;23.332;2024-01-06T09:16:29;16.25;;;6.32;;
65831;SDS011;52593;42.648;23.332;2024-01-06T09:18:54;12.67;;;5.60;;
65831;SDS011;52593;42.648;23.332;2024-01-06T09:21:20;14.27;;;6.40;;
65831;SDS011;52593;42.648;23.332;2024-01-06T09:23:45;14.93;;;5.73;;
65831;SDS011;52593;42.648;23.332;2024-01-06T09:26:11;15.75;;;6.03;;
65831;SDS011;52593;42.648;23.332;2024-01-06T09:28:36;18.10;;;6.47;;
65831;SDS011;52593;42.648;23.332;2024-01-06T09:31:02;15.33;;;5.90;;
65831;SDS011;52593;42.648;23.332;2024-01-06T09:33:29;13.73;;;6.28;;
65831;SDS011;52593;42.648;23.332;2024-01-06T09:35:55;17.67;;;7.03;;
65831;SDS011;52593;42.648;23.332;2024-01-06T09:38:20;19.43;;;6.67;;
65831;SDS011;52593;42.648;23.332;2024-01-06T09:40:46;18.60;;;6.90;;
65831;SDS011;52593;42.648;23.332;2024-01-06T09:43:14;17.75;;;7.07;;
65831;SDS011;52593;42.648;23.332;2024-01-06T09:45:39;20.30;;;7.32;;
65831;SDS011;52593;42.648;23.332;2024-01-06T09:48:14;16.60;;;7.30;;
65831;SDS011;52593;42.648;23.332;2024-01-06T09:50:42;16.55;;;6.00;;
65831;SDS011;52593;42.648;23.332;2024-01-06T09:53:11;19.33;;;5.70;;
65831;SDS011;52593;42.648;23.332;2024-01-06T09:55:38;22.07;;;7.13;;
65831;SDS011;52593;42.648;23.332;2024-01-06T09:58:04;16.55;;;6.32;;
65831;SDS011;52593;42.648;23.332;2024-01-06T10:00:31;9.35;;;4.18;;
65831;SDS011;52593;42.648;23.332;2024-01-06T10:02:57;13.63;;;5.53;;
65831;SDS011;52593;42.648;23.332;2024-01-06T10:05:23;13.37;;;5.17;;
65831;SDS011;52593;42.648;23.332;2024-01-06T10:07:48;12.88;;;5.65;;
65831;SDS011;52593;42.648;23.332;2024-01-06T10:10:14;15.90;;;5.80;;
65831;SDS011;52593;42.648;23.332;2024-01-06T10:12:40;17.33;;;6.28;;
65831;SDS011;52593;42.648;23.332;2024-01-06T10:15:07;13.55;;;6.03;;
65831;SDS011;52593;42.648;23.332;2024-01-06T10:17:40;13.55;;;5.22;;
65831;SDS011;52593;42.648;23.332;2024-01-06T10:20:07;21.03;;;6.10;;
65831;SDS011;52593;42.648;23.332;2024-01-06T10:22:35;17.98;;;7.10;;
65831;SDS011;52593;42.648;23.332;2024-01-06T10:25:01;26.52;;;8.15;;
65831;SDS011;52593;42.648;23.332;2024-01-06T10:27:27;24.40;;;8.02;;
65831;SDS011;52593;42.648;23.332;2024-01-06T10:29:53;21.83;;;8.40;;
65831;SDS011;52593;42.648;23.332;2024-01-06T10:32:18;27.60;;;10.07;;
65831;SDS011;52593;42.648;23.332;2024-01-06T10:34:44;25.70;;;10.77;;
65831;SDS011;52593;42.648;23.332;2024-01-06T10:37:10;27.77;;;11.85;;
65831;SDS011;52593;42.648;23.332;2024-01-06T10:39:36;30.10;;;12.60;;
65831;SDS011;52593;42.648;23.332;2024-01-06T10:42:01;30.97;;;13.33;;
65831;SDS011;52593;42.648;23.332;2024-01-06T10:44:29;29.83;;;13.32;;
65831;SDS011;52593;42.648;23.332;2024-01-06T10:46:57;30.98;;;13.63;;
65831;SDS011;52593;42.648;23.332;2024-01-06T10:49:24;31.88;;;13.95;;
65831;SDS011;52593;42.648;23.332;2024-01-06T10:51:51;30.00;;;12.70;;
65831;SDS011;52593;42.648;23.332;2024-01-06T10:54:18;33.33;;;13.43;;
65831;SDS011;52593;42.648;23.332;2024-01-06T10:56:45;30.30;;;12.88;;
65831;SDS011;52593;42.648;23.332;2024-01-06T10:59:13;35.47;;;13.70;;
65831;SDS011;52593;42.648;23.332;2024-01-06T11:01:40;33.67;;;13.10;;
65831;SDS011;52593;42.648;23.332;2024-01-06T11:04:06;29.95;;;13.50;;
65831;SDS011;52593;42.648;23.332;2024-01-06T11:06:32;31.47;;;14.30;;
65831;SDS011;52593;42.648;23.332;2024-01-06T11:09:02;37.03;;;14.60;;
65831;SDS011;52593;42.648;23.332;2024-01-06T11:11:35;33.97;;;14.85;;
65831;SDS011;52593;42.648;23.332;2024-01-06T11:14:18;35.40;;;13.97;;
65831;SDS011;52593;42.648;23.332;2024-01-06T11:16:48;33.30;;;14.48;;
65831;SDS011;52593;42.648;23.332;2024-01-06T11:19:59;38.85;;;15.65;;
65831;SDS011;52593;42.648;23.332;2024-01-06T11:24:57;29.77;;;13.10;;
65831;SDS011;52593;42.648;23.332;2024-01-06T11:27:31;36.03;;;12.63;;
65831;SDS011;52593;42.648;23.332;2024-01-06T11:29:57;26.10;;;11.77;;
65831;SDS011;52593;42.648;23.332;2024-01-06T11:34:55;26.70;;;11.20;;
65831;SDS011;52593;42.648;23.332;2024-01-06T11:40:10;26.20;;;10.07;;
65831;SDS011;52593;42.648;23.332;2024-01-06T11:42:41;32.22;;;11.48;;
65831;SDS011;52593;42.648;23.332;2024-01-06T11:45:07;22.42;;;9.38;;
65831;SDS011;52593;42.648;23.332;2024-01-06T11:47:34;23.10;;;8.57;;
65831;SDS011;52593;42.648;23.332;2024-01-06T11:50:01;16.83;;;6.47;;
65831;SDS011;52593;42.648;23.332;2024-01-06T11:52:30;16.85;;;6.95;;
65831;SDS011;52593;42.648;23.332;2024-01-06T11:54:57;16.55;;;6.28;;
65831;SDS011;52593;42.648;23.332;2024-01-06T11:57:25;19.40;;;5.97;;
65831;SDS011;52593;42.648;23.332;2024-01-06T11:59:51;12.07;;;4.90;;
65831;SDS011;52593;42.648;23.332;2024-01-06T12:02:17;12.73;;;4.03;;
65831;SDS011;52593;42.648;23.332;2024-01-06T12:04:47;13.63;;;4.80;;
65831;SDS011;52593;42.648;23.332;2024-01-06T12:07:15;14.27;;;5.10;;
65831;SDS011;52593;42.648;23.332;2024-01-06T12:09:41;17.67;;;5.90;;
65831;SDS011;52593;42.648;23.332;2024-01-06T12:12:06;15.63;;;6.30;;
65831;SDS011;52593;42.648;23.332;2024-01-06T12:14:32;15.57;;;5.90;;
65831;SDS011;52593;42.648;23.332;2024-01-06T12:17:01;18.55;;;5.75;;
65831;SDS011;52593;42.648;23.332;2024-01-06T12:19:31;16.25;;;6.47;;
65831;SDS011;52593;42.648;23.332;2024-01-06T12:21:58;14.80;;;6.30;;
65831;SDS011;52593;42.648;23.332;2024-01-06T12:24:24;19.13;;;6.80;;
65831;SDS011;52593;42.648;23.332;2024-01-06T12:26:52;15.23;;;6.35;;
65831;SDS011;52593;42.648;23.332;2024-01-06T12:29:17;17.47;;;6.27;;
65831;SDS011;52593;42.648;23.332;2024-01-06T12:31:44;22.13;;;7.63;;
65831;SDS011;52593;42.648;23.332;2024-01-06T12:34:10;16.30;;;6.57;;
65831;SDS011;52593;42.648;23.332;2024-01-06T12:36:39;16.83;;;6.55;;
65831;SDS011;52593;42.648;23.332;2024-01-06T12:39:10;17.67;;;6.38;;
65831;SDS011;52593;42.648;23.332;2024-01-06T12:41:38;13.57;;;5.82;;
65831;SDS011;52593;42.648;23.332;2024-01-06T12:44:05;16.83;;;6.23;;
65831;SDS011;52593;42.648;23.332;2024-01-06T12:46:32;17.13;;;5.38;;
65831;SDS011;52593;42.648;23.332;2024-01-06T12:48:58;14.20;;;5.50;;
65831;SDS011;52593;42.648;23.332;2024-01-06T12:51:23;14.80;;;6.03;;
65831;SDS011;52593;42.648;23.332;2024-01-06T12:53:49;15.23;;;6.63;;
65831;SDS011;52593;42.648;23.332;2024-01-06T12:56:14;22.63;;;7.50;;
65831;SDS011;52593;42.648;23.332;2024-01-06T12:58:40;17.53;;;6.97;;
65831;SDS011;52593;42.648;23.332;2024-01-06T13:01:06;17.52;;;7.05;;
65831;SDS011;52593;42.648;23.332;2024-01-06T13:03:32;18.88;;;7.75;;
65831;SDS011;52593;42.648;23.332;2024-01-06T13:05:58;17.47;;;6.97;;
65831;SDS011;52593;42.648;23.332;2024-01-06T13:08:25;18.77;;;7.90;;
65831;SDS011;52593;42.648;23.332;2024-01-06T13:10:51;16.23;;;7.47;;
65831;SDS011;52593;42.648;23.332;2024-01-06T13:13:16;16.73;;;7.20;;
65831;SDS011;52593;42.648;23.332;2024-01-06T13:15:42;16.35;;;7.78;;
65831;SDS011;52593;42.648;23.332;2024-01-06T13:18:07;17.47;;;7.53;;
65831;SDS011;52593;42.648;23.332;2024-01-06T13:20:33;20.57;;;7.60;;
65831;SDS011;52593;42.648;23.332;2024-01-06T13:22:58;15.93;;;7.37;;
65831;SDS011;52593;42.648;23.332;2024-01-06T13:25:23;18.50;;;7.60;;
65831;SDS011;52593;42.648;23.332;2024-01-06T13:27:49;16.43;;;6.83;;
65831;SDS011;52593;42.648;23.332;2024-01-06T13:30:15;20.48;;;8.45;;
65831;SDS011;52593;42.648;23.332;2024-01-06T13:32:41;18.53;;;7.43;;
65831;SDS011;52593;42.648;23.332;2024-01-06T13:35:07;18.65;;;7.90;;
65831;SDS011;52593;42.648;23.332;2024-01-06T13:37:34;18.92;;;7.68;;
65831;SDS011;52593;42.648;23.332;2024-01-06T13:39:59;18.60;;;7.40;;
65831;SDS011;52593;42.648;23.332;2024-01-06T13:42:25;17.77;;;7.53;;
65831;SDS011;52593;42.648;23.332;2024-01-06T13:44:50;21.45;;;7.10;;
65831;SDS011;52593;42.648;23.332;2024-01-06T13:47:16;16.40;;;6.50;;
65831;SDS011;52593;42.648;23.332;2024-01-06T13:49:41;19.37;;;6.97;;
65831;SDS011;52593;42.648;23.332;2024-01-06T13:52:07;16.17;;;6.87;;
65831;SDS011;52593;42.648;23.332;2024-01-06T13:54:33;13.03;;;5.40;;
65831;SDS011;52593;42.648;23.332;2024-01-06T13:56:59;16.23;;;5.32;;
65831;SDS011;52593;42.648;23.332;2024-01-06T13:59:25;13.10;;;5.60;;
65831;SDS011;52593;42.648;23.332;2024-01-06T14:01:50;11.32;;;4.72;;
65831;SDS011;52593;42.648;23.332;2024-01-06T14:04:16;17.00;;;5.18;;
65831;SDS011;52593;42.648;23.332;2024-01-06T14:06:42;16.00;;;4.90;;
65831;SDS011;52593;42.648;23.332;2024-01-06T14:09:07;15.17;;;4.50;;
65831;SDS011;52593;42.648;23.332;2024-01-06T14:11:33;21.80;;;5.40;;
65831;SDS011;52593;42.648;23.332;2024-01-06T14:13:59;13.23;;;5.60;;
65831;SDS011;52593;42.648;23.332;2024-01-06T14:16:25;14.70;;;5.30;;
65831;SDS011;52593;42.648;23.332;2024-01-06T14:18:51;15.93;;;5.70;;
65831;SDS011;52593;42.648;23.332;2024-01-06T14:21:17;19.15;;;8.35;;
65831;SDS011;52593;42.648;23.332;2024-01-06T14:23:44;19.45;;;9.70;;